Time;durP1;ratioP1;P1;durP2;ratioP2;P2;SDS_P1;SDS_P2;PMS_P1;PMS_P2;Temp;Humidity;BMP_temperature;BMP_pressure;BME280_temperature;BME280_humidity;BME280_pressure;Samples;Min_cycle;Max_cycle;Signal;HPM_P1;HPM_P2
2021/06/17 00:01:47;;;;;;;4.87;3.80;;;;;;;18.86;62.92;99441.84;4980480;28;20233;-85
2021/06/17 00:04:14;;;;;;;4.10;3.50;;;;;;;18.89;63.01;99455.69;4979747;28;20241;-86
2021/06/17 00:06:40;;;;;;;4.03;3.73;;;;;;;18.84;62.93;99444.84;4980306;28;20529;-86
2021/06/17 00:09:08;;;;;;;4.53;3.87;;;;;;;18.83;62.76;99450.56;4996612;28;20224;-84
2021/06/17 00:11:35;;;;;;;4.17;3.87;;;;;;;18.83;62.64;99454.09;4980354;28;20572;-85
2021/06/17 00:14:02;;;;;;;4.37;3.97;;;;;;;18.74;62.68;99444.88;4964071;28;20262;-84
2021/06/17 00:16:30;;;;;;;5.00;3.93;;;;;;;18.75;62.75;99446.53;4980133;28;20334;-82
2021/06/17 00:18:57;;;;;;;4.40;4.00;;;;;;;18.65;62.98;99456.59;4979811;28;20223;-84
2021/06/17 00:21:24;;;;;;;4.20;3.73;;;;;;;18.59;63.24;99446.84;4996071;28;20278;-83
2021/06/17 00:23:52;;;;;;;4.33;3.93;;;;;;;18.60;63.31;99449.28;4979889;28;20234;-81
2021/06/17 00:26:18;;;;;;;5.73;4.10;;;;;;;18.54;63.77;99449.56;4979409;28;20315;-82
2021/06/17 00:28:45;;;;;;;5.10;4.07;;;;;;;18.49;63.40;99444.94;4996288;28;20578;-82
2021/06/17 00:31:12;;;;;;;5.57;3.90;;;;;;;18.44;63.21;99453.88;4979816;28;20259;-86
2021/06/17 00:33:39;;;;;;;4.50;4.10;;;;;;;18.35;63.33;99443.88;4979769;28;20246;-80
2021/06/17 00:36:06;;;;;;;4.73;4.33;;;;;;;18.26;63.78;99449.06;4979494;28;20319;-82
2021/06/17 00:38:32;;;;;;;5.07;4.00;;;;;;;18.17;64.49;99455.31;4979816;28;20234;-86
2021/06/17 00:40:59;;;;;;;4.77;4.20;;;;;;;18.14;64.16;99439.59;4996341;28;20708;-87
2021/06/17 00:43:26;;;;;;;5.63;4.07;;;;;;;18.08;64.71;99446.91;4995966;28;20639;-80
2021/06/17 00:45:54;;;;;;;4.40;4.00;;;;;;;18.09;65.28;99450.44;4979615;28;20247;-80
2021/06/17 00:48:21;;;;;;;4.43;4.07;;;;;;;18.01;64.82;99447.19;4979302;28;20751;-86
2021/06/17 00:50:51;;;;;;;4.73;3.87;;;;;;;18.03;64.88;99457.75;4979785;28;20311;-86
2021/06/17 00:53:27;;;;;;;4.50;4.10;;;;;;;17.91;65.05;99449.09;4979824;28;20259;-83
2021/06/17 00:55:54;;;;;;;4.10;3.80;;;;;;;17.91;65.47;99459.94;4963435;28;20243;-85
2021/06/17 00:58:22;;;;;;;4.50;4.10;;;;;;;17.79;65.76;99452.06;4963066;28;20232;-86
2021/06/17 01:00:49;;;;;;;4.47;4.07;;;;;;;17.77;65.82;99456.97;4995615;28;20275;-87
2021/06/17 01:03:16;;;;;;;6.07;4.57;;;;;;;17.69;66.15;99454.75;4979166;28;20254;-83
2021/06/17 01:05:43;;;;;;;4.63;4.07;;;;;;;17.54;66.29;99455.53;4979221;28;20289;-84
2021/06/17 01:08:35;;;;;;;6.10;4.07;;;;;;;17.55;66.56;99454.44;4979252;28;20298;-86
2021/06/17 01:11:02;;;;;;;4.83;4.40;;;;;;;17.59;66.57;99462.88;4979203;28;20235;-86
2021/06/17 01:13:50;;;;;;;4.60;4.20;;;;;;;17.53;66.78;99455.81;4996786;28;20705;-83
2021/06/17 01:16:37;;;;;;;5.27;4.53;;;;;;;17.45;67.39;99467.97;4995886;28;20302;-87
2021/06/17 01:19:26;;;;;;;4.60;4.20;;;;;;;17.43;67.23;99466.63;4979200;28;20562;-86
2021/06/17 01:22:07;;;;;;;6.50;4.70;;;;;;;17.37;67.30;99454.97;4978960;28;20263;-83
2021/06/17 01:24:49;;;;;;;4.60;4.20;;;;;;;17.39;67.44;99458.25;4994947;28;20227;-87
2021/06/17 01:27:53;;;;;;;5.73;4.07;;;;;;;17.40;67.33;99459.06;4979096;28;20313;-82
2021/06/17 01:30:20;;;;;;;5.40;4.50;;;;;;;17.26;67.92;99452.53;4995633;28;20227;-88
2021/06/17 01:32:53;;;;;;;7.03;4.53;;;;;;;17.17;67.82;99446.78;4979211;28;20538;-85
2021/06/17 01:35:21;;;;;;;5.17;4.70;;;;;;;17.12;68.22;99453.00;4979060;28;20544;-82
2021/06/17 01:37:51;;;;;;;4.90;4.50;;;;;;;17.09;68.18;99445.44;4994892;28;20265;-82
2021/06/17 01:40:19;;;;;;;5.07;4.53;;;;;;;16.98;68.15;99437.56;4978607;28;20258;-84
2021/06/17 01:42:46;;;;;;;5.10;4.57;;;;;;;17.01;68.13;99450.56;4980895;28;20227;-81
2021/06/17 01:45:13;;;;;;;5.10;4.70;;;;;;;17.02;68.11;99442.16;4981624;28;20291;-86
2021/06/17 01:47:41;;;;;;;5.17;4.67;;;;;;;16.97;68.18;99447.56;4998372;28;20230;-84
2021/06/17 01:50:12;;;;;;;5.10;4.70;;;;;;;16.84;67.99;99428.31;5013630;28;20231;-86
2021/06/17 01:52:39;;;;;;;5.37;4.63;;;;;;;16.90;68.03;99449.69;4996932;28;20621;-85
2021/06/17 01:55:07;;;;;;;5.03;4.63;;;;;;;16.84;67.84;99433.72;4982109;28;20230;-85
2021/06/17 01:57:34;;;;;;;4.60;4.20;;;;;;;16.88;67.88;99446.44;4998039;28;20277;-84
2021/06/17 02:00:04;;;;;;;5.10;4.60;;;;;;;16.82;67.99;99438.56;4997865;28;20701;-85
2021/06/17 02:02:31;;;;;;;4.97;4.47;;;;;;;16.68;68.38;99427.41;4998563;28;20234;-86
2021/06/17 02:04:59;;;;;;;5.23;4.83;;;;;;;16.71;68.39;99435.81;4966022;28;20254;-84
2021/06/17 02:07:25;;;;;;;5.33;4.83;;;;;;;16.67;68.65;99432.00;4998224;28;20310;-83
2021/06/17 02:09:53;;;;;;;7.33;4.90;;;;;;;16.71;68.74;99440.41;5014892;28;20285;-86
2021/06/17 02:12:20;;;;;;;4.70;4.30;;;;;;;16.54;69.16;99423.53;4981545;28;20368;-82
2021/06/17 02:14:48;;;;;;;5.27;4.70;;;;;;;16.54;69.17;99431.66;4965936;28;20535;-80
2021/06/17 02:17:16;;;;;;;6.23;4.90;;;;;;;16.52;69.32;99428.38;4998800;28;20285;-87
2021/06/17 02:19:43;;;;;;;5.10;4.70;;;;;;;16.55;69.01;99438.69;5001546;28;20594;-80
2021/06/17 02:22:12;;;;;;;6.10;5.20;;;;;;;16.50;68.83;99442.19;4969241;28;20268;-86
2021/06/17 02:24:40;;;;;;;5.47;4.90;;;;;;;16.47;69.22;99448.09;4969814;28;20273;-86
2021/06/17 02:27:11;;;;;;;5.37;4.57;;;;;;;16.43;69.20;99446.19;4985760;28;20289;-86
2021/06/17 02:29:42;;;;;;;4.87;4.47;;;;;;;16.38;69.24;99444.25;4985686;28;20250;-87
2021/06/17 02:32:12;;;;;;;5.20;4.70;;;;;;;16.30;69.69;99442.88;5001377;28;20630;-79
2021/06/17 02:34:41;;;;;;;6.03;4.53;;;;;;;16.25;69.46;99436.63;5001570;28;20688;-84
2021/06/17 02:37:08;;;;;;;5.53;5.13;;;;;;;16.20;69.63;99442.81;5001453;28;20231;-79
2021/06/17 02:39:35;;;;;;;5.17;4.67;;;;;;;16.22;70.05;99443.38;4969324;28;20247;-80
2021/06/17 02:42:02;;;;;;;5.07;4.57;;;;;;;16.21;69.76;99447.16;4985048;28;20738;-84
2021/06/17 02:44:31;;;;;;;5.73;4.57;;;;;;;16.19;69.84;99437.69;4969296;28;20246;-83
2021/06/17 02:46:58;;;;;;;6.07;4.63;;;;;;;16.19;69.57;99437.69;4985308;28;20316;-86
2021/06/17 02:49:25;;;;;;;5.23;4.47;;;;;;;16.17;69.97;99440.63;5001505;28;20312;-86
2021/06/17 02:51:51;;;;;;;5.40;4.93;;;;;;;16.22;69.94;99443.38;4969151;28;20231;-86
2021/06/17 02:54:19;;;;;;;5.40;4.90;;;;;;;16.25;69.69;99444.72;4985013;28;20232;-87
2021/06/17 02:57:24;;;;;;;5.80;5.23;;;;;;;16.27;69.59;99450.72;4968893;28;20223;-84
2021/06/17 02:59:58;;;;;;;5.80;4.90;;;;;;;16.17;69.98;99435.22;4985377;28;20696;-84
2021/06/17 03:02:44;;;;;;;5.50;5.00;;;;;;;16.17;69.97;99437.94;5000557;28;20288;-87
2021/06/17 03:05:20;;;;;;;5.07;4.67;;;;;;;16.21;69.92;99427.41;5000962;28;20284;-87
2021/06/17 03:07:58;;;;;;;5.60;5.10;;;;;;;16.14;70.38;99426.84;5001116;28;20242;-85
2021/06/17 03:10:29;;;;;;;6.00;5.27;;;;;;;16.18;70.18;99433.34;5000542;28;20245;-86
2021/06/17 03:13:01;;;;;;;5.33;4.93;;;;;;;16.11;70.46;99430.03;4985080;28;20221;-84
2021/06/17 03:15:31;;;;;;;5.80;5.20;;;;;;;16.15;70.30;99439.25;4984650;28;20259;-85
2021/06/17 03:18:02;;;;;;;5.87;5.30;;;;;;;16.06;70.72;99430.00;4968821;28;20642;-87
2021/06/17 03:20:34;;;;;;;6.10;5.07;;;;;;;16.16;70.42;99436.31;5001307;28;20700;-82
2021/06/17 03:23:05;;;;;;;6.20;5.03;;;;;;;16.13;70.19;99436.84;4984718;28;20279;-86
2021/06/17 03:25:32;;;;;;;5.57;5.03;;;;;;;16.24;70.17;99449.31;4968673;28;20230;-87
2021/06/17 03:28:00;;;;;;;5.83;5.30;;;;;;;16.22;69.83;99429.88;4984586;28;20321;-85
2021/06/17 03:30:29;;;;;;;5.93;5.43;;;;;;;16.28;69.93;99434.19;4984171;28;20229;-82
2021/06/17 03:32:58;;;;;;;6.10;5.27;;;;;;;16.37;69.89;99444.53;4984532;28;20243;-87
2021/06/17 03:35:28;;;;;;;6.60;5.40;;;;;;;16.34;69.58;99442.34;5000291;28;20309;-87
2021/06/17 03:37:56;;;;;;;5.83;5.13;;;;;;;16.32;69.92;99437.22;4984853;28;20317;-87
2021/06/17 03:40:25;;;;;;;5.47;5.07;;;;;;;16.45;69.72;99447.56;4968006;28;20231;-87
2021/06/17 03:42:52;;;;;;;6.70;5.10;;;;;;;16.52;69.41;99455.44;5000698;28;20585;-83
2021/06/17 03:45:20;;;;;;;5.83;5.00;;;;;;;16.46;69.31;99437.56;4968106;28;20227;-86
2021/06/17 03:47:48;;;;;;;5.77;5.27;;;;;;;16.56;69.05;99448.44;5000222;28;20664;-84
2021/06/17 03:50:15;;;;;;;5.43;4.90;;;;;;;16.60;68.94;99449.56;4983667;28;20250;-86
2021/06/17 03:52:46;;;;;;;5.40;4.90;;;;;;;16.66;68.67;99446.59;4984252;28;20285;-87
2021/06/17 03:55:19;;;;;;;5.47;4.97;;;;;;;16.71;68.39;99443.94;4984354;28;20242;-85
2021/06/17 03:57:48;;;;;;;5.77;5.23;;;;;;;16.84;68.28;99444.53;5000436;28;20576;-84
2021/06/17 04:00:16;;;;;;;6.87;5.27;;;;;;;16.93;68.74;99453.78;4983835;28;20316;-87
2021/06/17 04:02:43;;;;;;;5.67;5.17;;;;;;;17.27;67.97;99454.13;5000100;28;20226;-82
2021/06/17 04:05:10;;;;;;;6.20;5.00;;;;;;;17.93;66.24;99453.16;4983900;28;20237;-87
2021/06/17 04:07:40;;;;;;;5.70;4.57;;;;;;;18.94;63.66;99462.19;4984150;28;20231;-86
2021/06/17 04:10:09;;;;;;;5.47;4.90;;;;;;;19.88;60.48;99455.63;4983371;28;20300;-82
2021/06/17 04:12:38;;;;;;;5.70;5.10;;;;;;;20.58;57.87;99446.00;5000049;28;20306;-86
2021/06/17 04:15:06;;;;;;;5.13;4.73;;;;;;;21.39;55.12;99456.72;4967694;28;20235;-85
2021/06/17 04:17:39;;;;;;;4.63;4.23;;;;;;;22.04;53.22;99454.06;4983483;28;20246;-85
2021/06/17 04:20:08;;;;;;;6.47;5.07;;;;;;;22.28;52.43;99443.00;4999410;28;20235;-86
2021/06/17 04:22:39;;;;;;;6.13;4.53;;;;;;;22.78;49.96;99446.72;4967446;28;20239;-85
2021/06/17 04:25:08;;;;;;;5.47;4.87;;;;;;;23.51;48.22;99441.06;4967372;28;20651;-85
2021/06/17 04:27:36;;;;;;;6.50;4.47;;;;;;;24.35;45.40;99440.34;4983377;28;20223;-83
2021/06/17 04:30:04;;;;;;;6.03;4.90;;;;;;;25.37;42.70;99474.72;4998977;28;20278;-81
2021/06/17 04:32:32;;;;;;;4.97;4.43;;;;;;;26.39;40.27;99546.41;4983376;28;20252;-81
2021/06/17 04:34:59;;;;;;;5.33;4.90;;;;;;;27.16;37.83;99570.94;4966795;28;20229;-85
2021/06/17 04:37:27;;;;;;;5.33;4.87;;;;;;;27.37;36.52;99552.56;4998087;28;20332;-84
2021/06/17 04:39:56;;;;;;;8.43;4.80;;;;;;;26.61;38.07;99464.59;4966507;28;20234;-85
2021/06/17 04:42:23;;;;;;;5.00;4.50;;;;;;;25.50;40.45;99456.47;4982835;28;20238;-84
2021/06/17 04:44:51;;;;;;;5.50;5.00;;;;;;;24.79;42.32;99455.81;4966963;28;20246;-83
2021/06/17 04:47:18;;;;;;;5.60;5.00;;;;;;;24.18;43.38;99452.00;4982808;28;20227;-81
2021/06/17 04:49:45;;;;;;;6.23;4.93;;;;;;;23.61;45.14;99459.13;4998865;28;20235;-84
2021/06/17 04:52:21;;;;;;;5.67;5.10;;;;;;;23.54;45.53;99458.75;4998647;28;20275;-85
2021/06/17 04:54:47;;;;;;;5.57;4.97;;;;;;;23.43;45.02;99449.94;4982696;28;20247;-84
2021/06/17 04:57:14;;;;;;;6.03;4.87;;;;;;;23.48;45.43;99458.06;4983331;28;20222;-84
2021/06/17 04:59:41;;;;;;;5.67;5.10;;;;;;;23.41;45.82;99451.38;4982490;28;20234;-84
2021/06/17 05:02:08;;;;;;;5.33;4.70;;;;;;;23.48;45.69;99465.44;4966250;28;20264;-83
2021/06/17 05:04:35;;;;;;;8.53;4.77;;;;;;;23.48;45.36;99470.91;4998641;28;20295;-84
2021/06/17 05:12:17;;;;;;;5.53;5.00;;;;;;;23.48;46.41;99465.44;4984487;28;20276;-80
2021/06/17 05:14:44;;;;;;;7.17;5.40;;;;;;;23.57;46.43;99469.06;4982537;28;20280;-83
2021/06/17 05:17:11;;;;;;;6.30;5.73;;;;;;;23.46;47.21;99462.25;4998455;28;20278;-84
2021/06/17 05:19:38;;;;;;;7.67;5.40;;;;;;;23.55;46.64;99463.13;5015652;28;20238;-80
2021/06/17 05:22:05;;;;;;;6.25;5.53;;;;;;;23.55;46.76;99460.38;4998143;28;20253;-84
2021/06/17 05:24:31;;;;;;;6.97;5.23;;;;;;;23.66;46.67;99461.75;4981876;28;20683;-84
2021/06/17 05:26:59;;;;;;;5.93;5.43;;;;;;;23.73;47.20;99459.41;4982279;28;20232;-85
2021/06/17 05:29:26;;;;;;;5.90;5.17;;;;;;;23.80;47.73;99464.44;4982469;28;20586;-85
2021/06/17 05:31:53;;;;;;;6.22;5.30;;;;;;;23.99;47.72;99456.84;4998456;28;20259;-83
2021/06/17 05:34:19;;;;;;;8.48;5.15;;;;;;;24.11;47.46;99446.16;4981518;28;20229;-84
2021/06/17 05:36:46;;;;;;;8.32;5.07;;;;;;;24.32;47.50;99454.66;4998129;28;20281;-82
2021/06/17 05:39:13;;;;;;;19.65;5.25;;;;;;;24.53;47.18;99455.75;5015157;28;20239;-83
2021/06/17 05:41:40;;;;;;;8.77;5.45;;;;;;;24.72;46.75;99461.78;4998059;28;20234;-83
2021/06/17 05:44:06;;;;;;;10.85;5.22;;;;;;;24.81;46.81;99454.41;4981137;28;20230;-84
2021/06/17 05:46:36;;;;;;;5.70;4.22;;;;;;;25.04;46.77;99446.09;4997675;28;20222;-81
2021/06/17 05:49:03;;;;;;;9.38;4.53;;;;;;;25.10;46.74;99437.41;4982342;28;20709;-84
2021/06/17 05:51:30;;;;;;;5.78;3.92;;;;;;;25.16;46.09;99440.78;5014379;28;20230;-83
2021/06/17 05:53:57;;;;;;;5.57;3.80;;;;;;;25.29;45.96;99443.38;4981544;28;20265;-84
2021/06/17 05:56:24;;;;;;;5.57;3.70;;;;;;;25.62;43.78;99449.25;4981474;28;20615;-80
2021/06/17 05:58:50;;;;;;;3.80;3.42;;;;;;;25.81;42.84;99446.97;4981758;28;20254;-83
2021/06/17 06:01:18;;;;;;;8.77;3.65;;;;;;;26.07;42.71;99457.94;5015082;28;20230;-80
2021/06/17 06:03:45;;;;;;;6.05;3.53;;;;;;;26.29;41.93;99457.75;5014907;28;20234;-84
2021/06/17 06:06:12;;;;;;;9.32;3.90;;;;;;;26.44;41.84;99455.59;4997459;28;20318;-85
2021/06/17 06:08:38;;;;;;;8.93;3.70;;;;;;;26.62;40.13;99454.41;4997712;28;20596;-82
2021/06/17 06:11:05;;;;;;;7.30;3.53;;;;;;;26.92;39.85;99449.78;4997569;28;20261;-83
2021/06/17 06:13:32;;;;;;;5.75;3.22;;;;;;;27.17;39.49;99454.31;4993268;28;20278;-83
2021/06/17 06:15:59;;;;;;;7.57;3.70;;;;;;;27.36;38.70;99457.41;4997469;28;20218;-83
2021/06/17 06:18:26;;;;;;;4.55;2.90;;;;;;;27.51;36.61;99458.78;4996463;28;20698;-84
2021/06/17 06:20:57;;;;;;;6.57;3.33;;;;;;;27.56;36.52;99448.38;4997109;28;20222;-86
2021/06/17 06:23:25;;;;;;;2.90;2.70;;;;;;;27.60;35.69;99456.78;4997128;28;20700;-83
2021/06/17 06:25:52;;;;;;;4.20;3.00;;;;;;;27.75;35.79;99452.59;4981308;28;20232;-80
2021/06/17 06:28:19;;;;;;;4.18;2.92;;;;;;;27.95;36.24;99460.00;4981310;28;20226;-80
2021/06/17 06:30:48;;;;;;;4.53;2.80;;;;;;;28.08;35.43;99469.13;4996570;28;20308;-83
2021/06/17 06:33:17;;;;;;;7.03;5.55;;;;;;;28.16;35.15;99462.75;4981523;28;20283;-84
2021/06/17 06:35:44;;;;;;;5.20;3.05;;;;;;;28.29;35.03;99465.19;4980964;28;20228;-80
2021/06/17 06:38:11;;;;;;;3.05;2.75;;;;;;;28.24;34.88;99457.16;4980983;28;20221;-85
2021/06/17 06:40:38;;;;;;;8.18;3.47;;;;;;;28.42;34.80;99469.59;5010535;28;20640;-81
2021/06/17 06:43:05;;;;;;;8.18;2.90;;;;;;;28.48;34.36;99466.63;4991086;28;20293;-80
2021/06/17 06:45:33;;;;;;;4.72;3.10;;;;;;;28.51;34.39;99469.47;4978982;28;20588;-83
2021/06/17 06:48:00;;;;;;;6.13;2.90;;;;;;;28.60;34.20;99469.41;4995044;28;20654;-79
2021/06/17 06:50:27;;;;;;;6.25;3.30;;;;;;;28.84;34.59;99481.28;4980394;28;20258;-84
2021/06/17 06:52:54;;;;;;;4.90;2.92;;;;;;;28.84;33.40;99477.69;4964500;28;20587;-81
2021/06/17 06:55:21;;;;;;;4.75;3.20;;;;;;;28.93;34.23;99467.38;4980430;28;20227;-82
2021/06/17 06:57:48;;;;;;;3.42;3.13;;;;;;;29.22;34.15;99485.63;4996495;28;20233;-83
2021/06/17 07:00:16;;;;;;;5.28;3.42;;;;;;;29.20;33.55;99474.97;4996155;28;20651;-83
2021/06/17 07:02:44;;;;;;;3.53;3.05;;;;;;;29.27;33.40;99474.34;4964371;28;20306;-83
2021/06/17 07:05:11;;;;;;;5.65;3.40;;;;;;;29.36;33.42;99479.78;4999734;28;20231;-85
2021/06/17 07:07:39;;;;;;;8.00;3.65;;;;;;;29.46;33.30;99476.53;4983745;28;20315;-84
2021/06/17 07:10:07;;;;;;;7.95;5.18;;;;;;;29.58;32.94;99493.84;4983297;28;20232;-83
2021/06/17 07:12:35;;;;;;;4.53;3.10;;;;;;;29.52;32.97;99492.53;4983947;28;20243;-85
2021/06/17 07:15:02;;;;;;;3.40;3.05;;;;;;;29.53;33.11;99491.38;4999795;28;20229;-83
2021/06/17 07:17:29;;;;;;;6.85;3.60;;;;;;;29.70;33.53;99504.09;4999843;28;20714;-85
2021/06/17 07:19:56;;;;;;;4.60;3.53;;;;;;;29.65;33.16;99501.56;4967521;28;20227;-86
2021/06/17 07:22:24;;;;;;;4.88;3.60;;;;;;;29.77;33.39;99503.50;4983311;28;20309;-81
2021/06/17 07:24:53;;;;;;;3.33;3.03;;;;;;;29.77;33.82;99505.09;4983465;28;20250;-82
2021/06/17 07:27:21;;;;;;;7.35;3.35;;;;;;;29.78;33.11;99519.69;4967728;28;20235;-80
2021/06/17 07:29:48;;;;;;;6.20;3.20;;;;;;;29.79;33.54;99517.75;5016117;28;20230;-84
2021/06/17 07:32:14;;;;;;;4.50;3.63;;;;;;;29.83;33.72;99518.66;4968055;28;20617;-85
2021/06/17 07:34:44;;;;;;;7.38;3.72;;;;;;;30.03;33.88;99526.78;5002701;28;20230;-85
2021/06/17 07:37:11;;;;;;;4.88;3.20;;;;;;;30.04;33.11;99524.84;5000028;28;20489;-84
2021/06/17 07:39:38;;;;;;;5.57;3.35;;;;;;;30.09;33.36;99522.63;4982960;28;20545;-84
2021/06/17 07:42:05;;;;;;;3.95;3.60;;;;;;;30.19;33.18;99529.59;4982884;28;20317;-85
2021/06/17 07:44:32;;;;;;;5.65;3.47;;;;;;;29.94;33.48;99517.84;5016800;28;20284;-83
2021/06/17 07:46:59;;;;;;;4.22;3.60;;;;;;;29.88;33.67;99521.16;5016674;28;20305;-81
2021/06/17 07:49:25;;;;;;;5.03;3.33;;;;;;;29.84;33.55;99525.78;4999441;28;20234;-81
2021/06/17 07:51:52;;;;;;;4.85;3.30;;;;;;;30.02;34.10;99522.41;4999403;28;20292;-81
2021/06/17 07:54:19;;;;;;;5.03;3.35;;;;;;;29.87;34.60;99517.59;4982520;28;20245;-83
2021/06/17 07:56:49;;;;;;;7.30;3.58;;;;;;;29.98;33.79;99520.72;5016481;28;20226;-84
2021/06/17 07:59:18;;;;;;;9.82;3.80;;;;;;;30.00;33.93;99519.19;5016246;28;20226;-79
2021/06/17 08:01:46;;;;;;;7.13;3.30;;;;;;;29.85;33.31;99521.88;4998769;28;20277;-84
2021/06/17 08:04:13;;;;;;;14.88;4.47;;;;;;;30.01;33.43;99520.81;4979141;28;20227;-83
2021/06/17 08:06:39;;;;;;;7.47;3.20;;;;;;;30.00;33.46;99518.41;4995539;28;20224;-82
2021/06/17 08:09:06;;;;;;;5.95;3.40;;;;;;;30.07;33.96;99524.13;4996779;28;20585;-83
2021/06/17 08:11:33;;;;;;;4.18;3.47;;;;;;;30.00;33.97;99512.88;4979258;28;20282;-84
2021/06/17 08:14:20;;;;;;;5.07;3.45;;;;;;;30.04;33.03;99516.53;4980735;28;20243;-84
2021/06/17 08:16:47;;;;;;;6.15;3.38;;;;;;;30.05;32.76;99513.41;4994915;28;20277;-84
2021/06/17 08:19:14;;;;;;;3.83;3.40;;;;;;;30.03;32.49;99517.69;4995264;28;20626;-86
2021/06/17 08:21:41;;;;;;;9.70;3.58;;;;;;;30.06;32.61;99503.97;4979344;28;20286;-83
2021/06/17 08:24:09;;;;;;;9.60;3.30;;;;;;;29.99;32.40;99509.31;4979123;28;20238;-82
2021/06/17 08:26:36;;;;;;;5.45;3.17;;;;;;;29.94;32.12;99511.53;4963761;28;20311;-82
2021/06/17 08:29:03;;;;;;;5.78;3.05;;;;;;;30.07;32.64;99508.34;4995501;28;20277;-84
2021/06/17 08:31:30;;;;;;;4.03;3.03;;;;;;;30.29;32.33;99511.69;4979500;28;20261;-83
2021/06/17 08:33:57;;;;;;;3.72;3.13;;;;;;;30.42;32.21;99516.03;4978994;28;20220;-83
2021/06/17 08:36:24;;;;;;;6.30;3.05;;;;;;;30.39;31.67;99517.53;4978741;28;20285;-84
2021/06/17 08:38:50;;;;;;;3.28;2.95;;;;;;;30.41;31.94;99515.22;4975399;28;20279;-84
2021/06/17 08:41:18;;;;;;;5.47;3.22;;;;;;;30.47;31.67;99516.56;4976616;28;20236;-81
2021/06/17 08:43:50;;;;;;;5.65;3.03;;;;;;;30.44;31.51;99508.97;4989252;28;20582;-85
2021/06/17 08:46:17;;;;;;;3.95;3.00;;;;;;;30.70;30.55;99524.28;4995554;28;20286;-83
2021/06/17 08:48:48;;;;;;;3.00;2.78;;;;;;;30.89;30.38;99524.38;4967345;28;20224;-85
2021/06/17 08:51:16;;;;;;;3.17;2.88;;;;;;;30.93;30.56;99520.56;4959279;28;20236;-84
2021/06/17 08:53:43;;;;;;;7.13;2.97;;;;;;;31.07;30.28;99522.09;4975975;28;20268;-83
2021/06/17 08:56:11;;;;;;;5.70;3.20;;;;;;;31.11;30.52;99529.31;4959485;28;20264;-83
2021/06/17 08:58:37;;;;;;;4.05;3.10;;;;;;;31.11;29.44;99504.41;4975820;28;20226;-85
2021/06/17 09:01:11;;;;;;;5.07;3.00;;;;;;;31.12;28.90;99516.28;4975761;28;20247;-85
2021/06/17 09:03:40;;;;;;;3.30;2.72;;;;;;;31.12;28.74;99511.56;4962427;28;20238;-85
2021/06/17 09:06:08;;;;;;;3.03;2.70;;;;;;;31.38;29.19;99510.97;4978379;28;20231;-81
2021/06/17 09:08:35;;;;;;;3.65;3.03;;;;;;;31.36;29.81;99507.75;4977535;28;20239;-83
2021/06/17 09:11:04;;;;;;;4.70;3.15;;;;;;;31.37;29.41;99523.19;4977157;28;20262;-83
2021/06/17 09:13:33;;;;;;;3.38;2.83;;;;;;;31.53;29.35;99518.44;4993541;28;20350;-80
2021/06/17 09:16:01;;;;;;;7.35;3.28;;;;;;;31.36;29.32;99522.38;4994783;28;20306;-84
2021/06/17 09:18:34;;;;;;;5.40;3.00;;;;;;;31.37;29.30;99526.75;4994966;28;20314;-82
2021/06/17 09:21:09;;;;;;;4.03;2.80;;;;;;;31.56;28.90;99522.47;4998122;28;20305;-82
2021/06/17 09:23:40;;;;;;;5.10;2.90;;;;;;;31.48;29.05;99511.22;4982016;28;20584;-83
2021/06/17 09:26:09;;;;;;;3.95;3.20;;;;;;;31.51;29.41;99506.91;4997679;28;20273;-84
2021/06/17 09:28:45;;;;;;;4.97;2.83;;;;;;;31.54;28.71;99519.22;4997641;28;20226;-85
2021/06/17 09:31:20;;;;;;;3.67;2.70;;;;;;;31.53;29.17;99514.84;4989528;28;20254;-81
2021/06/17 09:33:49;;;;;;;3.50;2.85;;;;;;;31.61;29.05;99508.34;4962979;28;20227;-83
2021/06/17 09:36:16;;;;;;;3.80;2.95;;;;;;;31.89;29.44;99506.16;4978404;28;20230;-81
2021/06/17 09:38:53;;;;;;;4.90;2.97;;;;;;;31.94;28.79;99503.09;4966342;28;20242;-84
2021/06/17 09:41:43;;;;;;;4.80;2.90;;;;;;;31.85;28.81;99500.56;4995600;28;20223;-83
2021/06/17 09:44:30;;;;;;;6.88;2.80;;;;;;;32.03;29.16;99494.56;4997704;28;20537;-83
2021/06/17 09:47:25;;;;;;;6.38;3.28;;;;;;;32.12;28.61;99484.09;5015010;28;20219;-83
2021/06/17 09:49:53;;;;;;;4.65;2.63;;;;;;;32.17;27.92;99489.34;4979275;28;20231;-82
2021/06/17 09:52:36;;;;;;;2.60;2.40;;;;;;;32.16;28.09;99498.81;4977649;28;20255;-81
2021/06/17 09:55:03;;;;;;;3.85;2.83;;;;;;;32.05;27.26;99483.94;4994283;28;20224;-83
2021/06/17 09:57:34;;;;;;;3.40;2.20;;;;;;;32.32;27.65;99491.22;4961876;28;20231;-85
2021/06/17 10:00:12;;;;;;;3.88;2.60;;;;;;;32.36;27.01;99489.31;4977792;28;20657;-80
2021/06/17 10:02:39;;;;;;;4.30;2.72;;;;;;;32.42;26.74;99489.81;5011940;28;20226;-84
2021/06/17 10:05:16;;;;;;;4.18;2.30;;;;;;;32.50;26.68;99491.53;4997240;28;20595;-81
2021/06/17 10:07:43;;;;;;;2.95;2.65;;;;;;;32.62;26.91;99488.56;4981584;28;20680;-81
2021/06/17 10:10:12;;;;;;;2.83;2.63;;;;;;;32.65;26.15;99485.09;4980056;28;20706;-84
2021/06/17 10:12:40;;;;;;;5.53;3.05;;;;;;;32.82;26.50;99484.59;4996648;28;20337;-83
2021/06/17 10:15:08;;;;;;;3.30;2.30;;;;;;;32.74;25.59;99472.59;4997733;28;20650;-85
2021/06/17 10:17:35;;;;;;;6.53;3.05;;;;;;;32.85;25.38;99480.28;4981270;28;20227;-85
2021/06/17 10:20:07;;;;;;;5.60;3.00;;;;;;;32.86;25.56;99491.00;4963239;28;20465;-79
2021/06/17 10:22:37;;;;;;;5.20;2.30;;;;;;;32.99;25.46;99483.31;4981350;28;20219;-82
2021/06/17 10:25:05;;;;;;;4.38;2.47;;;;;;;33.02;25.47;99488.91;4997398;28;20258;-84
2021/06/17 10:27:41;;;;;;;3.58;2.72;;;;;;;33.00;25.13;99484.88;4980880;28;20714;-84
2021/06/17 10:30:09;;;;;;;3.00;2.80;;;;;;;33.08;25.78;99472.72;4996450;28;20234;-84
2021/06/17 10:32:38;;;;;;;3.22;2.70;;;;;;;32.97;25.22;99480.09;4997187;28;20342;-82
2021/06/17 10:35:05;;;;;;;6.35;3.50;;;;;;;33.07;25.77;99485.81;4996177;28;20510;-82
2021/06/17 10:37:34;;;;;;;15.35;3.63;;;;;;;33.21;24.53;99476.94;4996760;28;20262;-83
2021/06/17 10:40:25;;;;;;;4.00;2.60;;;;;;;33.09;24.91;99483.44;4999639;28;20714;-82
2021/06/17 10:42:57;;;;;;;8.93;3.03;;;;;;;33.06;25.37;99481.44;5017477;28;20231;-84
2021/06/17 10:45:39;;;;;;;10.35;3.38;;;;;;;33.27;25.73;99472.63;5000811;28;20281;-80
2021/06/17 10:48:10;;;;;;;23.42;5.32;;;;;;;33.40;25.37;99487.13;5000912;28;20230;-84
2021/06/17 10:50:43;;;;;;;5.75;2.78;;;;;;;33.43;24.45;99489.13;5001000;28;20226;-82
2021/06/17 10:53:34;;;;;;;5.10;2.60;;;;;;;33.47;24.36;99490.78;4984707;28;20250;-84
2021/06/17 10:56:06;;;;;;;10.07;3.08;;;;;;;33.41;24.22;99483.16;4985122;28;20566;-81
2021/06/17 10:58:43;;;;;;;9.82;3.33;;;;;;;33.45;25.20;99487.59;5000951;28;20615;-82
2021/06/17 11:01:45;;;;;;;5.45;2.60;;;;;;;33.57;24.92;99479.00;5017887;28;20638;-84
2021/06/17 11:04:30;;;;;;;4.85;2.60;;;;;;;33.57;25.19;99487.34;5000374;28;20284;-83
2021/06/17 11:07:03;;;;;;;3.50;2.70;;;;;;;33.63;24.52;99482.28;5018289;28;20253;-85
2021/06/17 11:09:32;;;;;;;3.25;2.30;;;;;;;33.73;24.56;99472.50;5018152;28;20599;-83
2021/06/17 11:12:00;;;;;;;2.90;2.17;;;;;;;33.80;23.51;99484.50;5000660;28;20238;-84
2021/06/17 11:14:27;;;;;;;3.90;2.30;;;;;;;33.76;23.52;99463.41;4984711;28;20233;-84
2021/06/17 11:16:55;;;;;;;3.42;2.35;;;;;;;33.76;22.72;99474.53;5018228;28;20222;-80
2021/06/17 11:19:22;;;;;;;3.47;2.50;;;;;;;33.76;22.59;99463.41;4984275;28;20327;-81
2021/06/17 11:21:49;;;;;;;4.07;2.42;;;;;;;34.00;22.53;99474.03;5000735;28;20281;-83
2021/06/17 11:24:19;;;;;;;3.30;2.53;;;;;;;33.99;23.11;99466.84;4984367;28;20317;-83
2021/06/17 11:26:48;;;;;;;2.38;2.17;;;;;;;34.05;22.95;99457.81;5017450;28;20226;-80
2021/06/17 11:29:48;;;;;;;2.50;2.30;;;;;;;34.17;22.68;99456.75;5001579;28;20231;-80
2021/06/17 11:32:25;;;;;;;3.22;2.30;;;;;;;34.19;22.77;99464.72;4999393;28;20297;-81
2021/06/17 11:34:52;;;;;;;3.25;2.00;;;;;;;34.19;21.65;99453.59;5000609;28;20218;-80
2021/06/17 11:37:19;;;;;;;3.00;2.20;;;;;;;34.26;22.39;99443.34;4984092;28;20234;-80
2021/06/17 11:39:47;;;;;;;3.88;2.58;;;;;;;34.49;22.18;99446.75;5016833;28;20231;-79
2021/06/17 11:42:19;;;;;;;4.30;2.42;;;;;;;34.43;21.63;99445.53;4999723;28;20235;-80
2021/06/17 11:45:01;;;;;;;3.67;2.50;;;;;;;34.55;21.99;99449.19;4984535;28;20223;-80
2021/06/17 11:47:28;;;;;;;3.92;2.00;;;;;;;34.53;21.16;99441.22;5000067;28;20325;-84
2021/06/17 11:50:04;;;;;;;4.32;2.20;;;;;;;34.70;21.97;99417.53;4983910;28;20277;-83
2021/06/17 11:52:37;;;;;;;3.08;2.22;;;;;;;34.74;21.41;99429.50;4999427;28;20556;-80